sensor_id;sensor_type;location;lat;lon;timestamp;P1;durP1;ratioP1;P2;durP2;ratioP2
3261;SDS011;1643;47.746;9.000;2024-03-17T00:00:21;1.60;;;1.40;;
3261;SDS011;1643;47.746;9.000;2024-03-17T00:02:47;1.30;;;1.20;;
3261;SDS011;1643;47.746;9.000;2024-03-17T00:05:14;5.47;;;1.73;;
3261;SDS011;1643;47.746;9.000;2024-03-17T00:07:40;3.07;;;1.80;;
3261;SDS011;1643;47.746;9.000;2024-03-17T00:10:06;2.37;;;1.30;;
3261;SDS011;1643;47.746;9.000;2024-03-17T00:12:35;1.40;;;1.30;;
3261;SDS011;1643;47.746;9.000;2024-03-17T00:15:02;3.33;;;1.80;;
3261;SDS011;1643;47.746;9.000;2024-03-17T00:17:28;1.93;;;1.83;;
3261;SDS011;1643;47.746;9.000;2024-03-17T00:19:54;4.50;;;2.20;;
3261;SDS011;1643;47.746;9.000;2024-03-17T00:22:20;3.73;;;2.07;;
3261;SDS011;1643;47.746;9.000;2024-03-17T00:24:45;2.00;;;1.87;;
3261;SDS011;1643;47.746;9.000;2024-03-17T00:27:11;3.53;;;2.03;;
3261;SDS011;1643;47.746;9.000;2024-03-17T00:29:38;1.90;;;1.77;;
3261;SDS011;1643;47.746;9.000;2024-03-17T00:32:04;1.80;;;1.67;;
3261;SDS011;1643;47.746;9.000;2024-03-17T00:34:31;3.20;;;2.00;;
3261;SDS011;1643;47.746;9.000;2024-03-17T00:36:57;1.90;;;1.63;;
3261;SDS011;1643;47.746;9.000;2024-03-17T00:39:24;3.60;;;2.20;;
3261;SDS011;1643;47.746;9.000;2024-03-17T00:41:50;1.47;;;1.37;;
3261;SDS011;1643;47.746;9.000;2024-03-17T00:44:16;3.03;;;2.07;;
3261;SDS011;1643;47.746;9.000;2024-03-17T00:46:41;2.10;;;1.77;;
3261;SDS011;1643;47.746;9.000;2024-03-17T00:49:07;2.00;;;1.80;;
3261;SDS011;1643;47.746;9.000;2024-03-17T00:51:35;2.90;;;1.60;;
3261;SDS011;1643;47.746;9.000;2024-03-17T00:54:01;1.97;;;1.70;;
3261;SDS011;1643;47.746;9.000;2024-03-17T00:56:27;2.60;;;1.67;;
3261;SDS011;1643;47.746;9.000;2024-03-17T00:58:53;3.90;;;1.80;;
3261;SDS011;1643;47.746;9.000;2024-03-17T01:01:18;1.60;;;1.50;;
3261;SDS011;1643;47.746;9.000;2024-03-17T01:03:44;3.00;;;1.80;;
3261;SDS011;1643;47.746;9.000;2024-03-17T01:06:11;2.30;;;2.10;;
3261;SDS011;1643;47.746;9.000;2024-03-17T01:08:36;2.40;;;2.20;;
3261;SDS011;1643;47.746;9.000;2024-03-17T01:11:02;2.17;;;1.93;;
3261;SDS011;1643;47.746;9.000;2024-03-17T01:13:28;3.27;;;1.97;;
3261;SDS011;1643;47.746;9.000;2024-03-17T01:15:54;2.00;;;1.83;;
3261;SDS011;1643;47.746;9.000;2024-03-17T01:18:19;1.73;;;1.63;;
3261;SDS011;1643;47.746;9.000;2024-03-17T01:20:45;2.97;;;2.17;;
3261;SDS011;1643;47.746;9.000;2024-03-17T01:23:11;1.87;;;1.77;;
3261;SDS011;1643;47.746;9.000;2024-03-17T01:25:36;4.87;;;2.37;;
3261;SDS011;1643;47.746;9.000;2024-03-17T01:28:05;5.37;;;2.13;;
3261;SDS011;1643;47.746;9.000;2024-03-17T01:30:31;3.03;;;1.70;;
3261;SDS011;1643;47.746;9.000;2024-03-17T01:32:59;2.13;;;1.80;;
3261;SDS011;1643;47.746;9.000;2024-03-17T01:35:25;2.10;;;1.90;;
3261;SDS011;1643;47.746;9.000;2024-03-17T01:37:51;2.90;;;2.20;;
3261;SDS011;1643;47.746;9.000;2024-03-17T01:40:17;2.20;;;2.00;;
3261;SDS011;1643;47.746;9.000;2024-03-17T01:42:43;2.77;;;2.27;;
3261;SDS011;1643;47.746;9.000;2024-03-17T01:45:25;2.50;;;1.97;;
3261;SDS011;1643;47.746;9.000;2024-03-17T01:47:53;2.13;;;2.03;;
3261;SDS011;1643;47.746;9.000;2024-03-17T01:50:23;2.70;;;1.73;;
3261;SDS011;1643;47.746;9.000;2024-03-17T01:52:51;2.80;;;1.77;;
3261;SDS011;1643;47.746;9.000;2024-03-17T01:55:19;3.20;;;2.07;;
3261;SDS011;1643;47.746;9.000;2024-03-17T01:57:47;5.23;;;2.07;;
3261;SDS011;1643;47.746;9.000;2024-03-17T02:00:14;1.73;;;1.63;;
3261;SDS011;1643;47.746;9.000;2024-03-17T02:02:40;2.70;;;1.67;;
3261;SDS011;1643;47.746;9.000;2024-03-17T02:05:06;4.80;;;2.10;;
3261;SDS011;1643;47.746;9.000;2024-03-17T02:07:31;5.33;;;1.57;;
3261;SDS011;1643;47.746;9.000;2024-03-17T02:09:57;1.63;;;1.53;;
3261;SDS011;1643;47.746;9.000;2024-03-17T02:12:23;1.80;;;1.70;;
3261;SDS011;1643;47.746;9.000;2024-03-17T02:14:49;2.07;;;1.67;;
3261;SDS011;1643;47.746;9.000;2024-03-17T02:17:15;1.80;;;1.60;;
3261;SDS011;1643;47.746;9.000;2024-03-17T02:19:41;2.20;;;1.87;;
3261;SDS011;1643;47.746;9.000;2024-03-17T02:22:15;3.20;;;1.97;;
3261;SDS011;1643;47.746;9.000;2024-03-17T02:24:42;2.17;;;1.90;;
3261;SDS011;1643;47.746;9.000;2024-03-17T02:27:10;3.63;;;1.80;;
3261;SDS011;1643;47.746;9.000;2024-03-17T02:29:36;2.00;;;1.80;;
3261;SDS011;1643;47.746;9.000;2024-03-17T02:32:05;2.17;;;1.80;;
3261;SDS011;1643;47.746;9.000;2024-03-17T02:34:34;2.00;;;1.80;;
3261;SDS011;1643;47.746;9.000;2024-03-17T02:37:04;1.50;;;1.40;;
3261;SDS011;1643;47.746;9.000;2024-03-17T02:39:32;1.47;;;1.37;;
3261;SDS011;1643;47.746;9.000;2024-03-17T02:42:05;6.03;;;1.90;;
3261;SDS011;1643;47.746;9.000;2024-03-17T02:44:33;1.80;;;1.70;;
3261;SDS011;1643;47.746;9.000;2024-03-17T02:47:00;3.43;;;1.77;;
3261;SDS011;1643;47.746;9.000;2024-03-17T02:49:27;3.27;;;1.77;;
3261;SDS011;1643;47.746;9.000;2024-03-17T02:52:00;1.67;;;1.57;;
3261;SDS011;1643;47.746;9.000;2024-03-17T02:54:26;3.47;;;2.10;;
3261;SDS011;1643;47.746;9.000;2024-03-17T02:56:52;4.90;;;2.00;;
3261;SDS011;1643;47.746;9.000;2024-03-17T02:59:17;4.97;;;3.20;;
3261;SDS011;1643;47.746;9.000;2024-03-17T03:01:43;3.80;;;2.63;;
3261;SDS011;1643;47.746;9.000;2024-03-17T03:04:10;3.73;;;2.53;;
3261;SDS011;1643;47.746;9.000;2024-03-17T03:06:35;3.33;;;2.50;;
3261;SDS011;1643;47.746;9.000;2024-03-17T03:09:01;4.70;;;2.50;;
3261;SDS011;1643;47.746;9.000;2024-03-17T03:11:30;2.87;;;2.13;;
3261;SDS011;1643;47.746;9.000;2024-03-17T03:13:56;5.10;;;2.20;;
3261;SDS011;1643;47.746;9.000;2024-03-17T03:16:22;3.20;;;2.30;;
3261;SDS011;1643;47.746;9.000;2024-03-17T03:18:48;3.63;;;2.50;;
3261;SDS011;1643;47.746;9.000;2024-03-17T03:21:15;2.50;;;1.80;;
3261;SDS011;1643;47.746;9.000;2024-03-17T03:23:41;7.67;;;2.47;;
3261;SDS011;1643;47.746;9.000;2024-03-17T03:26:09;2.30;;;2.00;;
3261;SDS011;1643;47.746;9.000;2024-03-17T03:28:35;3.90;;;1.70;;
3261;SDS011;1643;47.746;9.000;2024-03-17T03:31:01;2.77;;;1.57;;
3261;SDS011;1643;47.746;9.000;2024-03-17T03:33:27;2.50;;;1.73;;
3261;SDS011;1643;47.746;9.000;2024-03-17T03:35:53;3.90;;;1.80;;
3261;SDS011;1643;47.746;9.000;2024-03-17T03:38:18;2.13;;;1.93;;
3261;SDS011;1643;47.746;9.000;2024-03-17T03:40:44;2.60;;;1.80;;
3261;SDS011;1643;47.746;9.000;2024-03-17T03:43:10;2.07;;;1.80;;
3261;SDS011;1643;47.746;9.000;2024-03-17T03:45:36;2.60;;;1.70;;
3261;SDS011;1643;47.746;9.000;2024-03-17T03:48:02;2.67;;;2.10;;
3261;SDS011;1643;47.746;9.000;2024-03-17T03:50:29;1.93;;;1.77;;
3261;SDS011;1643;47.746;9.000;2024-03-17T03:52:55;1.70;;;1.53;;
3261;SDS011;1643;47.746;9.000;2024-03-17T03:55:21;1.90;;;1.70;;
3261;SDS011;1643;47.746;9.000;2024-03-17T03:57:46;1.67;;;1.57;;
3261;SDS011;1643;47.746;9.000;2024-03-17T04:00:17;1.70;;;1.60;;
3261;SDS011;1643;47.746;9.000;2024-03-17T04:02:46;2.00;;;1.73;;
3261;SDS011;1643;47.746;9.000;2024-03-17T04:05:14;3.43;;;1.80;;
3261;SDS011;1643;47.746;9.000;2024-03-17T04:07:40;3.43;;;1.93;;
3261;SDS011;1643;47.746;9.000;2024-03-17T04:10:08;2.10;;;1.90;;
3261;SDS011;1643;47.746;9.000;2024-03-17T04:12:34;2.33;;;2.13;;
3261;SDS011;1643;47.746;9.000;2024-03-17T04:15:00;2.20;;;1.97;;
3261;SDS011;1643;47.746;9.000;2024-03-17T04:17:26;2.47;;;2.00;;
3261;SDS011;1643;47.746;9.000;2024-03-17T04:19:52;2.50;;;2.30;;
3261;SDS011;1643;47.746;9.000;2024-03-17T04:22:19;3.40;;;2.20;;
3261;SDS011;1643;47.746;9.000;2024-03-17T04:24:47;2.43;;;2.23;;
3261;SDS011;1643;47.746;9.000;2024-03-17T04:27:18;3.20;;;1.90;;
3261;SDS011;1643;47.746;9.000;2024-03-17T04:29:47;2.13;;;2.00;;
3261;SDS011;1643;47.746;9.000;2024-03-17T04:32:15;4.00;;;2.43;;
3261;SDS011;1643;47.746;9.000;2024-03-17T04:34:41;2.50;;;2.03;;
3261;SDS011;1643;47.746;9.000;2024-03-17T04:37:10;2.00;;;1.90;;
3261;SDS011;1643;47.746;9.000;2024-03-17T04:39:42;3.37;;;2.13;;
3261;SDS011;1643;47.746;9.000;2024-03-17T04:42:14;2.13;;;1.77;;
3261;SDS011;1643;47.746;9.000;2024-03-17T04:44:41;2.80;;;1.90;;
3261;SDS011;1643;47.746;9.000;2024-03-17T04:47:07;5.13;;;2.50;;
3261;SDS011;1643;47.746;9.000;2024-03-17T04:49:37;2.43;;;2.23;;
3261;SDS011;1643;47.746;9.000;2024-03-17T04:52:04;3.07;;;2.20;;
3261;SDS011;1643;47.746;9.000;2024-03-17T04:54:33;3.60;;;1.97;;
3261;SDS011;1643;47.746;9.000;2024-03-17T04:56:59;5.70;;;2.07;;
3261;SDS011;1643;47.746;9.000;2024-03-17T04:59:25;1.77;;;1.67;;
3261;SDS011;1643;47.746;9.000;2024-03-17T05:01:50;4.43;;;1.83;;
3261;SDS011;1643;47.746;9.000;2024-03-17T05:04:17;1.83;;;1.73;;
3261;SDS011;1643;47.746;9.000;2024-03-17T05:06:43;2.70;;;1.70;;
3261;SDS011;1643;47.746;9.000;2024-03-17T05:09:12;1.90;;;1.70;;
3261;SDS011;1643;47.746;9.000;2024-03-17T05:11:38;3.73;;;2.20;;
3261;SDS011;1643;47.746;9.000;2024-03-17T05:14:05;2.27;;;2.07;;
3261;SDS011;1643;47.746;9.000;2024-03-17T05:16:31;4.50;;;2.33;;
3261;SDS011;1643;47.746;9.000;2024-03-17T05:18:57;2.60;;;2.37;;
3261;SDS011;1643;47.746;9.000;2024-03-17T05:21:22;2.60;;;2.40;;
3261;SDS011;1643;47.746;9.000;2024-03-17T05:23:54;2.97;;;2.77;;
3261;SDS011;1643;47.746;9.000;2024-03-17T05:26:21;3.60;;;2.73;;
3261;SDS011;1643;47.746;9.000;2024-03-17T05:28:47;3.03;;;2.83;;
3261;SDS011;1643;47.746;9.000;2024-03-17T05:31:13;2.30;;;2.10;;
3261;SDS011;1643;47.746;9.000;2024-03-17T05:33:40;3.10;;;2.20;;
3261;SDS011;1643;47.746;9.000;2024-03-17T05:36:06;2.67;;;1.93;;
3261;SDS011;1643;47.746;9.000;2024-03-17T05:38:31;2.67;;;2.43;;
3261;SDS011;1643;47.746;9.000;2024-03-17T05:40:58;2.37;;;2.17;;
3261;SDS011;1643;47.746;9.000;2024-03-17T05:43:25;2.70;;;2.30;;
3261;SDS011;1643;47.746;9.000;2024-03-17T05:45:57;4.03;;;2.67;;
3261;SDS011;1643;47.746;9.000;2024-03-17T05:48:23;3.47;;;2.33;;
3261;SDS011;1643;47.746;9.000;2024-03-17T05:50:49;4.20;;;2.80;;
3261;SDS011;1643;47.746;9.000;2024-03-17T05:53:18;2.73;;;2.37;;
3261;SDS011;1643;47.746;9.000;2024-03-17T05:55:50;2.47;;;2.27;;
3261;SDS011;1643;47.746;9.000;2024-03-17T05:58:16;6.10;;;2.20;;
3261;SDS011;1643;47.746;9.000;2024-03-17T06:00:42;9.10;;;2.33;;
3261;SDS011;1643;47.746;9.000;2024-03-17T06:03:08;6.10;;;3.20;;
3261;SDS011;1643;47.746;9.000;2024-03-17T06:05:35;5.87;;;3.37;;
3261;SDS011;1643;47.746;9.000;2024-03-17T06:08:02;3.90;;;3.03;;
3261;SDS011;1643;47.746;9.000;2024-03-17T06:10:29;2.50;;;2.30;;
3261;SDS011;1643;47.746;9.000;2024-03-17T06:12:56;2.73;;;2.43;;
3261;SDS011;1643;47.746;9.000;2024-03-17T06:15:22;2.23;;;2.07;;
3261;SDS011;1643;47.746;9.000;2024-03-17T06:17:49;2.87;;;2.57;;
3261;SDS011;1643;47.746;9.000;2024-03-17T06:20:23;2.77;;;2.00;;
3261;SDS011;1643;47.746;9.000;2024-03-17T06:22:52;2.00;;;1.90;;
3261;SDS011;1643;47.746;9.000;2024-03-17T06:25:18;1.90;;;1.60;;
3261;SDS011;1643;47.746;9.000;2024-03-17T06:27:44;1.60;;;1.50;;
3261;SDS011;1643;47.746;9.000;2024-03-17T06:30:11;1.30;;;1.20;;
3261;SDS011;1643;47.746;9.000;2024-03-17T06:32:39;2.00;;;1.90;;
3261;SDS011;1643;47.746;9.000;2024-03-17T06:35:06;1.57;;;1.47;;
3261;SDS011;1643;47.746;9.000;2024-03-17T06:37:32;1.60;;;1.50;;
3261;SDS011;1643;47.746;9.000;2024-03-17T06:39:58;2.07;;;1.97;;
3261;SDS011;1643;47.746;9.000;2024-03-17T06:42:24;2.20;;;2.00;;
3261;SDS011;1643;47.746;9.000;2024-03-17T06:44:49;2.40;;;2.20;;
3261;SDS011;1643;47.746;9.000;2024-03-17T06:47:16;2.20;;;2.00;;
3261;SDS011;1643;47.746;9.000;2024-03-17T06:49:41;2.43;;;2.23;;
3261;SDS011;1643;47.746;9.000;2024-03-17T06:52:08;3.50;;;2.30;;
3261;SDS011;1643;47.746;9.000;2024-03-17T06:54:34;3.00;;;2.10;;
3261;SDS011;1643;47.746;9.000;2024-03-17T06:57:00;2.40;;;2.20;;
3261;SDS011;1643;47.746;9.000;2024-03-17T06:59:26;2.40;;;2.20;;
3261;SDS011;1643;47.746;9.000;2024-03-17T07:01:52;2.63;;;2.43;;
3261;SDS011;1643;47.746;9.000;2024-03-17T07:04:17;2.47;;;2.27;;
3261;SDS011;1643;47.746;9.000;2024-03-17T07:06:43;3.20;;;2.77;;
3261;SDS011;1643;47.746;9.000;2024-03-17T07:09:09;2.43;;;2.23;;
3261;SDS011;1643;47.746;9.000;2024-03-17T07:11:35;2.47;;;2.27;;
3261;SDS011;1643;47.746;9.000;2024-03-17T07:14:01;5.20;;;3.13;;
3261;SDS011;1643;47.746;9.000;2024-03-17T07:16:27;3.90;;;3.17;;
3261;SDS011;1643;47.746;9.000;2024-03-17T07:18:53;3.77;;;2.73;;
3261;SDS011;1643;47.746;9.000;2024-03-17T07:21:21;4.90;;;4.17;;
3261;SDS011;1643;47.746;9.000;2024-03-17T07:23:46;5.13;;;3.57;;
3261;SDS011;1643;47.746;9.000;2024-03-17T07:26:12;4.50;;;3.13;;
3261;SDS011;1643;47.746;9.000;2024-03-17T07:28:39;4.60;;;3.40;;
3261;SDS011;1643;47.746;9.000;2024-03-17T07:31:06;7.80;;;4.00;;
3261;SDS011;1643;47.746;9.000;2024-03-17T07:33:34;3.30;;;3.00;;
3261;SDS011;1643;47.746;9.000;2024-03-17T07:35:59;2.80;;;2.43;;
3261;SDS011;1643;47.746;9.000;2024-03-17T07:38:26;9.63;;;3.97;;
3261;SDS011;1643;47.746;9.000;2024-03-17T07:41:14;3.50;;;3.20;;
3261;SDS011;1643;47.746;9.000;2024-03-17T07:43:38;5.47;;;3.57;;
3261;SDS011;1643;47.746;9.000;2024-03-17T07:46:08;4.00;;;3.60;;
3261;SDS011;1643;47.746;9.000;2024-03-17T07:48:37;4.80;;;3.90;;
3261;SDS011;1643;47.746;9.000;2024-03-17T07:51:08;4.50;;;3.50;;
3261;SDS011;1643;47.746;9.000;2024-03-17T07:53:38;4.03;;;3.50;;
3261;SDS011;1643;47.746;9.000;2024-03-17T07:56:07;6.57;;;4.70;;
3261;SDS011;1643;47.746;9.000;2024-03-17T07:58:40;5.80;;;4.07;;
3261;SDS011;1643;47.746;9.000;2024-03-17T08:01:08;5.97;;;4.73;;
3261;SDS011;1643;47.746;9.000;2024-03-17T08:03:36;5.27;;;4.03;;
3261;SDS011;1643;47.746;9.000;2024-03-17T08:06:04;7.37;;;5.10;;
3261;SDS011;1643;47.746;9.000;2024-03-17T08:08:31;5.97;;;4.70;;
3261;SDS011;1643;47.746;9.000;2024-03-17T08:10:57;8.07;;;5.00;;
3261;SDS011;1643;47.746;9.000;2024-03-17T08:13:24;5.33;;;4.70;;
3261;SDS011;1643;47.746;9.000;2024-03-17T08:15:59;8.27;;;5.67;;
3261;SDS011;1643;47.746;9.000;2024-03-17T08:18:26;4.97;;;4.20;;
3261;SDS011;1643;47.746;9.000;2024-03-17T08:20:55;9.13;;;5.33;;
3261;SDS011;1643;47.746;9.000;2024-03-17T08:23:21;5.50;;;4.90;;
3261;SDS011;1643;47.746;9.000;2024-03-17T08:25:57;6.33;;;4.23;;
3261;SDS011;1643;47.746;9.000;2024-03-17T08:28:25;5.47;;;3.87;;
3261;SDS011;1643;47.746;9.000;2024-03-17T08:30:55;4.10;;;3.70;;
3261;SDS011;1643;47.746;9.000;2024-03-17T08:33:23;4.63;;;3.80;;
3261;SDS011;1643;47.746;9.000;2024-03-17T08:36:07;4.00;;;3.60;;
3261;SDS011;1643;47.746;9.000;2024-03-17T08:38:34;3.90;;;3.60;;
3261;SDS011;1643;47.746;9.000;2024-03-17T08:41:07;3.73;;;3.37;;
3261;SDS011;1643;47.746;9.000;2024-03-17T08:43:34;4.30;;;3.90;;
3261;SDS011;1643;47.746;9.000;2024-03-17T08:46:04;3.83;;;3.50;;
3261;SDS011;1643;47.746;9.000;2024-03-17T08:48:32;4.10;;;3.80;;
3261;SDS011;1643;47.746;9.000;2024-03-17T08:51:00;5.37;;;4.07;;
3261;SDS011;1643;47.746;9.000;2024-03-17T08:53:27;4.67;;;4.27;;
3261;SDS011;1643;47.746;9.000;2024-03-17T08:55:53;4.90;;;4.27;;
3261;SDS011;1643;47.746;9.000;2024-03-17T08:58:19;4.87;;;4.10;;
3261;SDS011;1643;47.746;9.000;2024-03-17T09:00:45;4.50;;;4.10;;
3261;SDS011;1643;47.746;9.000;2024-03-17T09:03:11;4.90;;;3.90;;
3261;SDS011;1643;47.746;9.000;2024-03-17T09:05:41;4.27;;;3.83;;
3261;SDS011;1643;47.746;9.000;2024-03-17T09:08:14;4.70;;;4.30;;
3261;SDS011;1643;47.746;9.000;2024-03-17T09:10:48;6.20;;;4.57;;
3261;SDS011;1643;47.746;9.000;2024-03-17T09:13:16;9.00;;;5.67;;
3261;SDS011;1643;47.746;9.000;2024-03-17T09:16:16;6.00;;;5.40;;
3261;SDS011;1643;47.746;9.000;2024-03-17T09:18:36;6.87;;;6.20;;
3261;SDS011;1643;47.746;9.000;2024-03-17T09:21:04;9.03;;;5.03;;
3261;SDS011;1643;47.746;9.000;2024-03-17T09:23:31;8.13;;;5.67;;
3261;SDS011;1643;47.746;9.000;2024-03-17T09:26:02;5.50;;;5.00;;
3261;SDS011;1643;47.746;9.000;2024-03-17T09:28:29;5.57;;;3.93;;
3261;SDS011;1643;47.746;9.000;2024-03-17T09:30:56;5.47;;;4.23;;
3261;SDS011;1643;47.746;9.000;2024-03-17T09:33:23;10.83;;;5.30;;
3261;SDS011;1643;47.746;9.000;2024-03-17T09:35:53;6.40;;;5.30;;
3261;SDS011;1643;47.746;9.000;2024-03-17T09:38:19;4.93;;;4.53;;
3261;SDS011;1643;47.746;9.000;2024-03-17T09:40:48;5.37;;;4.87;;
3261;SDS011;1643;47.746;9.000;2024-03-17T09:43:23;4.67;;;4.17;;
3261;SDS011;1643;47.746;9.000;2024-03-17T09:45:52;4.90;;;4.40;;
3261;SDS011;1643;47.746;9.000;2024-03-17T09:48:25;5.00;;;4.60;;
3261;SDS011;1643;47.746;9.000;2024-03-17T09:50:54;4.27;;;3.87;;
3261;SDS011;1643;47.746;9.000;2024-03-17T09:53:29;5.53;;;4.07;;
3261;SDS011;1643;47.746;9.000;2024-03-17T09:55:58;5.50;;;3.97;;
3261;SDS011;1643;47.746;9.000;2024-03-17T09:58:37;5.40;;;4.30;;
3261;SDS011;1643;47.746;9.000;2024-03-17T10:01:03;4.37;;;3.70;;
3261;SDS011;1643;47.746;9.000;2024-03-17T10:03:43;4.40;;;4.00;;
3261;SDS011;1643;47.746;9.000;2024-03-17T10:06:29;4.60;;;4.20;;
3261;SDS011;1643;47.746;9.000;2024-03-17T10:08:57;4.97;;;4.10;;
3261;SDS011;1643;47.746;9.000;2024-03-17T10:11:24;10.03;;;3.80;;
3261;SDS011;1643;47.746;9.000;2024-03-17T10:14:03;4.67;;;4.20;;
3261;SDS011;1643;47.746;9.000;2024-03-17T10:16:31;4.87;;;4.30;;
3261;SDS011;1643;47.746;9.000;2024-03-17T10:19:14;5.40;;;4.90;;
3261;SDS011;1643;47.746;9.000;2024-03-17T10:21:44;5.40;;;4.90;;
3261;SDS011;1643;47.746;9.000;2024-03-17T10:24:23;7.00;;;4.40;;
3261;SDS011;1643;47.746;9.000;2024-03-17T10:26:54;3.97;;;3.57;;
3261;SDS011;1643;47.746;9.000;2024-03-17T10:29:27;4.60;;;4.20;;
3261;SDS011;1643;47.746;9.000;2024-03-17T10:31:59;5.83;;;4.50;;
3261;SDS011;1643;47.746;9.000;2024-03-17T10:34:29;6.63;;;4.53;;
3261;SDS011;1643;47.746;9.000;2024-03-17T10:39:37;5.40;;;4.43;;
3261;SDS011;1643;47.746;9.000;2024-03-17T10:42:05;4.90;;;4.50;;
3261;SDS011;1643;47.746;9.000;2024-03-17T10:44:37;4.73;;;4.23;;
3261;SDS011;1643;47.746;9.000;2024-03-17T10:47:04;4.03;;;3.63;;
3261;SDS011;1643;47.746;9.000;2024-03-17T10:49:37;4.60;;;4.10;;
3261;SDS011;1643;47.746;9.000;2024-03-17T10:52:16;4.20;;;3.80;;
3261;SDS011;1643;47.746;9.000;2024-03-17T10:54:48;3.80;;;2.80;;
3261;SDS011;1643;47.746;9.000;2024-03-17T10:59:47;4.30;;;2.60;;
3261;SDS011;1643;47.746;9.000;2024-03-17T11:02:23;5.13;;;2.80;;
3261;SDS011;1643;47.746;9.000;2024-03-17T11:04:53;5.30;;;2.33;;
3261;SDS011;1643;47.746;9.000;2024-03-17T11:07:21;6.20;;;2.70;;
3261;SDS011;1643;47.746;9.000;2024-03-17T11:09:48;5.70;;;2.20;;
3261;SDS011;1643;47.746;9.000;2024-03-17T11:17:55;3.87;;;3.27;;
3261;SDS011;1643;47.746;9.000;2024-03-17T11:20:55;8.10;;;3.17;;
3261;SDS011;1643;47.746;9.000;2024-03-17T11:23:40;5.03;;;3.70;;
3261;SDS011;1643;47.746;9.000;2024-03-17T11:26:06;5.60;;;3.17;;
3261;SDS011;1643;47.746;9.000;2024-03-17T11:33:59;3.10;;;2.77;;
3261;SDS011;1643;47.746;9.000;2024-03-17T11:36:33;4.77;;;3.07;;
3261;SDS011;1643;47.746;9.000;2024-03-17T11:39:05;3.13;;;2.70;;
3261;SDS011;1643;47.746;9.000;2024-03-17T11:41:50;2.90;;;2.47;;
3261;SDS011;1643;47.746;9.000;2024-03-17T11:46:55;4.40;;;3.00;;
3261;SDS011;1643;47.746;9.000;2024-03-17T11:49:32;3.60;;;2.87;;
3261;SDS011;1643;47.746;9.000;2024-03-17T11:52:04;4.37;;;3.33;;
3261;SDS011;1643;47.746;9.000;2024-03-17T11:54:33;2.90;;;2.70;;
3261;SDS011;1643;47.746;9.000;2024-03-17T11:57:01;7.07;;;2.53;;
3261;SDS011;1643;47.746;9.000;2024-03-17T11:59:29;4.20;;;2.40;;
3261;SDS011;1643;47.746;9.000;2024-03-17T12:01:55;6.13;;;3.00;;
3261;SDS011;1643;47.746;9.000;2024-03-17T12:04:22;3.30;;;2.50;;
3261;SDS011;1643;47.746;9.000;2024-03-17T12:06:50;3.83;;;2.80;;
3261;SDS011;1643;47.746;9.000;2024-03-17T12:12:01;5.20;;;3.37;;
3261;SDS011;1643;47.746;9.000;2024-03-17T12:14:32;4.30;;;3.23;;
3261;SDS011;1643;47.746;9.000;2024-03-17T12:17:06;4.80;;;2.70;;
3261;SDS011;1643;47.746;9.000;2024-03-17T12:19:33;6.87;;;2.93;;
3261;SDS011;1643;47.746;9.000;2024-03-17T12:21:59;6.23;;;3.10;;
3261;SDS011;1643;47.746;9.000;2024-03-17T12:24:27;3.20;;;2.43;;
3261;SDS011;1643;47.746;9.000;2024-03-17T12:26:53;3.30;;;2.73;;
3261;SDS011;1643;47.746;9.000;2024-03-17T12:31:55;5.53;;;2.90;;
3261;SDS011;1643;47.746;9.000;2024-03-17T12:34:24;5.33;;;3.27;;
3261;SDS011;1643;47.746;9.000;2024-03-17T12:36:52;6.57;;;3.20;;
3261;SDS011;1643;47.746;9.000;2024-03-17T12:39:22;3.07;;;2.17;;
3261;SDS011;1643;47.746;9.000;2024-03-17T12:42:06;4.40;;;3.47;;
3261;SDS011;1643;47.746;9.000;2024-03-17T12:44:36;3.83;;;2.43;;
3261;SDS011;1643;47.746;9.000;2024-03-17T12:47:06;4.70;;;3.57;;
3261;SDS011;1643;47.746;9.000;2024-03-17T12:49:33;3.70;;;2.47;;
3261;SDS011;1643;47.746;9.000;2024-03-17T12:52:00;3.60;;;2.50;;
3261;SDS011;1643;47.746;9.000;2024-03-17T12:54:27;3.57;;;2.70;;
3261;SDS011;1643;47.746;9.000;2024-03-17T12:57:04;5.80;;;2.93;;
3261;SDS011;1643;47.746;9.000;2024-03-17T12:59:49;2.93;;;2.70;;
3261;SDS011;1643;47.746;9.000;2024-03-17T13:02:44;2.70;;;2.17;;
3261;SDS011;1643;47.746;9.000;2024-03-17T13:07:43;3.97;;;2.30;;
3261;SDS011;1643;47.746;9.000;2024-03-17T13:10:11;2.67;;;2.47;;
3261;SDS011;1643;47.746;9.000;2024-03-17T13:12:38;3.40;;;2.30;;
3261;SDS011;1643;47.746;9.000;2024-03-17T13:15:04;2.63;;;2.43;;
3261;SDS011;1643;47.746;9.000;2024-03-17T13:17:30;4.20;;;2.17;;
3261;SDS011;1643;47.746;9.000;2024-03-17T13:19:58;6.70;;;2.80;;
3261;SDS011;1643;47.746;9.000;2024-03-17T13:22:25;4.40;;;2.63;;
3261;SDS011;1643;47.746;9.000;2024-03-17T13:24:51;5.90;;;3.27;;
3261;SDS011;1643;47.746;9.000;2024-03-17T13:27:16;2.70;;;2.30;;
3261;SDS011;1643;47.746;9.000;2024-03-17T13:29:42;2.63;;;2.40;;
3261;SDS011;1643;47.746;9.000;2024-03-17T13:32:12;4.90;;;2.00;;
3261;SDS011;1643;47.746;9.000;2024-03-17T13:34:38;4.17;;;2.00;;
3261;SDS011;1643;47.746;9.000;2024-03-17T13:37:03;2.10;;;1.90;;
3261;SDS011;1643;47.746;9.000;2024-03-17T13:39:32;4.73;;;2.80;;
3261;SDS011;1643;47.746;9.000;2024-03-17T13:41:58;2.63;;;2.07;;
3261;SDS011;1643;47.746;9.000;2024-03-17T13:44:29;3.70;;;1.80;;
3261;SDS011;1643;47.746;9.000;2024-03-17T13:46:55;1.93;;;1.73;;
3261;SDS011;1643;47.746;9.000;2024-03-17T13:49:26;4.17;;;2.20;;
3261;SDS011;1643;47.746;9.000;2024-03-17T13:51:53;2.50;;;2.30;;
3261;SDS011;1643;47.746;9.000;2024-03-17T13:54:19;2.33;;;2.10;;
3261;SDS011;1643;47.746;9.000;2024-03-17T13:56:47;4.90;;;1.73;;
3261;SDS011;1643;47.746;9.000;2024-03-17T13:59:13;2.70;;;1.60;;
3261;SDS011;1643;47.746;9.000;2024-03-17T14:01:45;2.40;;;2.00;;
3261;SDS011;1643;47.746;9.000;2024-03-17T14:04:14;1.97;;;1.43;;
3261;SDS011;1643;47.746;9.000;2024-03-17T14:06:43;3.90;;;1.80;;
3261;SDS011;1643;47.746;9.000;2024-03-17T14:09:10;3.63;;;1.63;;
3261;SDS011;1643;47.746;9.000;2024-03-17T14:11:37;2.80;;;2.37;;
3261;SDS011;1643;47.746;9.000;2024-03-17T14:14:03;4.27;;;2.30;;
3261;SDS011;1643;47.746;9.000;2024-03-17T14:16:33;5.53;;;2.13;;
3261;SDS011;1643;47.746;9.000;2024-03-17T14:18:59;4.73;;;1.83;;
3261;SDS011;1643;47.746;9.000;2024-03-17T14:21:26;3.20;;;2.00;;
3261;SDS011;1643;47.746;9.000;2024-03-17T14:23:52;2.40;;;1.40;;
3261;SDS011;1643;47.746;9.000;2024-03-17T14:26:19;6.23;;;2.80;;
3261;SDS011;1643;47.746;9.000;2024-03-17T14:28:44;5.20;;;3.70;;
3261;SDS011;1643;47.746;9.000;2024-03-17T14:31:11;9.50;;;2.50;;
3261;SDS011;1643;47.746;9.000;2024-03-17T14:33:37;4.50;;;1.70;;
3261;SDS011;1643;47.746;9.000;2024-03-17T14:36:02;3.30;;;1.73;;
3261;SDS011;1643;47.746;9.000;2024-03-17T14:38:28;3.13;;;1.90;;
3261;SDS011;1643;47.746;9.000;2024-03-17T14:40:55;2.47;;;1.70;;
3261;SDS011;1643;47.746;9.000;2024-03-17T14:43:20;3.00;;;1.83;;
3261;SDS011;1643;47.746;9.000;2024-03-17T14:45:46;2.50;;;2.00;;
3261;SDS011;1643;47.746;9.000;2024-03-17T14:48:12;3.20;;;1.70;;
3261;SDS011;1643;47.746;9.000;2024-03-17T14:50:40;4.40;;;1.80;;
3261;SDS011;1643;47.746;9.000;2024-03-17T14:53:06;3.43;;;1.87;;
3261;SDS011;1643;47.746;9.000;2024-03-17T14:55:32;4.93;;;1.57;;
3261;SDS011;1643;47.746;9.000;2024-03-17T14:57:58;3.90;;;2.30;;
3261;SDS011;1643;47.746;9.000;2024-03-17T15:00:27;2.03;;;1.47;;
3261;SDS011;1643;47.746;9.000;2024-03-17T15:02:55;4.27;;;2.10;;
3261;SDS011;1643;47.746;9.000;2024-03-17T15:05:21;3.63;;;2.00;;
3261;SDS011;1643;47.746;9.000;2024-03-17T15:07:48;4.70;;;1.80;;
3261;SDS011;1643;47.746;9.000;2024-03-17T15:10:14;2.60;;;2.07;;
3261;SDS011;1643;47.746;9.000;2024-03-17T15:12:41;2.87;;;2.10;;
3261;SDS011;1643;47.746;9.000;2024-03-17T15:15:07;2.80;;;1.83;;
3261;SDS011;1643;47.746;9.000;2024-03-17T15:17:36;5.47;;;2.00;;
3261;SDS011;1643;47.746;9.000;2024-03-17T15:20:02;3.83;;;2.87;;
3261;SDS011;1643;47.746;9.000;2024-03-17T15:22:39;5.40;;;2.93;;
3261;SDS011;1643;47.746;9.000;2024-03-17T15:25:05;3.20;;;2.30;;
3261;SDS011;1643;47.746;9.000;2024-03-17T15:27:31;3.27;;;2.20;;
3261;SDS011;1643;47.746;9.000;2024-03-17T15:29:56;2.60;;;1.77;;
3261;SDS011;1643;47.746;9.000;2024-03-17T15:32:22;2.73;;;2.10;;
3261;SDS011;1643;47.746;9.000;2024-03-17T15:34:48;3.47;;;2.30;;
3261;SDS011;1643;47.746;9.000;2024-03-17T15:37:14;3.17;;;2.43;;
3261;SDS011;1643;47.746;9.000;2024-03-17T15:39:41;3.80;;;2.07;;
3261;SDS011;1643;47.746;9.000;2024-03-17T15:42:08;4.27;;;2.57;;
3261;SDS011;1643;47.746;9.000;2024-03-17T15:44:38;2.33;;;1.67;;
3261;SDS011;1643;47.746;9.000;2024-03-17T15:47:04;4.20;;;2.03;;